logo dgac
Martes 06 de Diciembre del 2022
Buscar por aerodromo o helipuerto
Ingrese nombre de aeródromo, localidad o designador OACI:

Aeródromo: General Bernardo O'Higgins (PUB) (SCCH)

Ubicación: Chillán, VIII Región, Chile (36º 34' 58'' S, 72º 01' 54'' W) Ver ubicación en el mapa

Pistas

Luces
Orientación Dimensión Pendiente Superficie Resistencia APCH THR RWY PAPI
04/22 1750 X 30 0,10 ASPH PCN 54 F/D/X/T No Sí (3º)
Horas de operación HJ
Elevación 152 m / 499 ft
Otra Información Adm : D.G.A.C
Uso : PUB
ubicado : 7 km E Chillán
TEL 422221655
email : aro.chillan@dgac.gob.cl

Otra información ver AIP-Chile Volumen I AD 3.9-3.8-C

CCCM/FCCV Descargar
andera de Chile
Mapa de General  Bernardo O'Higgins (PUB) (SCCH)

Último METAR

METAR SCCH 052200Z 24012KT CAVOK 26/05 Q1013

Último TAF

TAF SCCH 051620Z 0518/0606 24008KT CAVOK TX30/0519Z TN15/0606Z TEMPO 0518/0522 28010KT

Últimas fotos cámaras

Imagen aerodromo General  Bernardo O'Higgins (PUB) (SCCH) N-Este tomada el 06-12-2022 07:02:44 Imagen aerodromo General  Bernardo O'Higgins (PUB) (SCCH) S-Este tomada el 06-12-2022 07:02:37

Último NOTAM

C5369/22 NOTAMR C5367/22 Q)SCEZ/QWULW/IV/BO/AW/000/001/3635S07202W005 A)SCCH B)2211291457 C)2212302300 D)DLY BTN 1200-2300 E)RPAS FLT 3NM W RWY22 SCCH RDO 0,05NM OPR DEBE NOTIFICAR A ARO SCCH VIA TEL 422221655 O 224392456 PREVIO AL INICIO. INSTRUCTIONS: CHILLAN INFO 127.7MHZ F)GND G)40FT AGL